Elkins-Randolph Co-Jennings Randolph Field Elkins US
ICAO: KEKN
IATA: EKN
Category: Medium
Scheduled Services: No

Elevation: 1987 ft
TransAlt. 18000 ft.

Airport Communications:
CLARKSBURG APP/DEP:121.15
ASOS:119.275
CTAF:123.6
RDO:122.2

KEKN Zoom In..

Runways:

(A) RW 05 length 4501 ft width 140 ft
---- / hdg 46

(B) RW 14 length 4544 ft width 140 ft
---- / hdg 136

(C) RW 23 length 4501 ft width 140 ft
---- / hdg 226

(D) RW 32 length 4544 ft width 140 ft
---- / hdg 316

Location; KEKN
Day. 30 / Time. 21.51 Zulu
* Altimeter: 30.05
* Temperature: 21° c. 69.8°f.
* Wind from: 280° Speed 10 kn with Gusts up to 15 kn.
Dewpoint: 09° c.
Visibility: 10 Statute Miles.
Clouds: Overcast 8500 ft.

KEKN 302151Z AUTO 28010G15KT 10SM OVC085 21/09 A3005 RMK AO2 SLP170 T02110094


Wind From 280°
Speed 10 kn.

 
 
jpsmedia worldairports.se 2020   terms of use